createdAt,value
2022-09-01T00:01:49.612Z,16.10
2022-09-01T00:04:20.363Z,16.09
2022-09-01T00:06:47.965Z,16.02
2022-09-01T00:09:18.243Z,16.08
2022-09-01T00:11:50.434Z,16.08
2022-09-01T00:14:30.225Z,16.03
2022-09-01T00:17:05.857Z,16.03
2022-09-01T00:19:33.983Z,15.97
2022-09-01T00:22:01.647Z,15.91
2022-09-01T00:24:29.640Z,15.78
2022-09-01T00:26:57.388Z,15.81
2022-09-01T00:29:26.155Z,15.76
2022-09-01T00:31:53.968Z,15.72
2022-09-01T00:34:21.043Z,15.63
2022-09-01T00:36:48.300Z,15.54
2022-09-01T00:39:15.924Z,15.47
2022-09-01T00:41:44.181Z,15.47
2022-09-01T00:44:14.490Z,15.42
2022-09-01T00:46:49.635Z,15.35
2022-09-01T00:49:34.993Z,15.29
2022-09-01T00:52:10.462Z,15.27
2022-09-01T00:54:42.959Z,15.27
2022-09-01T00:57:10.487Z,15.25
2022-09-01T00:59:43.753Z,15.22
2022-09-01T01:02:11.457Z,15.14
2022-09-01T01:04:38.867Z,15.22
2022-09-01T01:07:06.411Z,15.18
2022-09-01T01:09:36.287Z,15.21
2022-09-01T01:12:05.685Z,15.19
2022-09-01T01:14:37.048Z,15.10
2022-09-01T01:17:04.418Z,15.01
2022-09-01T01:19:55.936Z,15.21
2022-09-01T01:22:45.143Z,15.13
2022-09-01T01:25:12.932Z,15.03
2022-09-01T01:27:43.939Z,15.07
2022-09-01T01:30:12.537Z,14.96
2022-09-01T01:32:43.339Z,14.92
2022-09-01T01:35:15.030Z,14.83
2022-09-01T01:37:46.643Z,15.01
2022-09-01T01:40:16.629Z,15.01
2022-09-01T01:42:46.142Z,14.93
2022-09-01T01:45:17.294Z,14.88
2022-09-01T01:47:48.162Z,14.98
2022-09-01T01:50:15.784Z,14.95
2022-09-01T01:52:45.576Z,14.96
2022-09-01T01:55:13.304Z,14.94
2022-09-01T01:57:51.625Z,14.99
2022-09-01T02:00:30.042Z,15.01
2022-09-01T02:02:58.830Z,14.94
2022-09-01T02:05:32.280Z,14.76
2022-09-01T02:08:04.802Z,14.78
2022-09-01T02:10:35.528Z,14.76
2022-09-01T02:13:07.557Z,14.70
2022-09-01T02:15:46.477Z,14.68
2022-09-01T02:18:19.882Z,14.65
2022-09-01T02:20:49.623Z,14.56
2022-09-01T02:23:20.250Z,14.58
2022-09-01T02:26:14.040Z,14.53
2022-09-01T02:28:38.769Z,14.36
2022-09-01T02:31:09.054Z,14.49
2022-09-01T02:33:37.977Z,14.39
2022-09-01T02:36:14.421Z,14.38
2022-09-01T02:38:45.984Z,14.32
2022-09-01T02:41:15.697Z,14.22
2022-09-01T02:43:46.306Z,14.25
2022-09-01T02:46:14.886Z,14.32
2022-09-01T02:48:46.229Z,14.30
2022-09-01T02:51:17.326Z,14.30
2022-09-01T02:53:46.792Z,14.26
2022-09-01T02:56:14.537Z,14.20
2022-09-01T02:58:48.705Z,14.11
2022-09-01T03:01:20.720Z,14.27
2022-09-01T03:03:50.328Z,14.24
2022-09-01T03:06:24.285Z,14.31
2022-09-01T03:08:55.759Z,14.35
2022-09-01T03:11:24.804Z,14.33
2022-09-01T03:13:52.391Z,14.41
2022-09-01T03:16:19.559Z,14.42
2022-09-01T03:18:46.565Z,14.49
2022-09-01T03:21:17.756Z,14.51
2022-09-01T03:23:46.804Z,14.59
2022-09-01T03:26:15.217Z,14.60
2022-09-01T03:28:42.341Z,14.58
2022-09-01T03:31:09.293Z,14.69
2022-09-01T03:33:37.316Z,14.63
2022-09-01T03:36:15.117Z,14.65
2022-09-01T03:38:44.340Z,14.56
2022-09-01T03:41:13.219Z,14.53
2022-09-01T03:43:45.882Z,14.47
2022-09-01T03:46:23.121Z,14.41
2022-09-01T03:48:55.186Z,14.27
2022-09-01T03:51:23.737Z,14.29
2022-09-01T03:53:55.262Z,14.27
2022-09-01T03:56:25.675Z,14.27
2022-09-01T03:58:54.740Z,14.21
2022-09-01T04:01:22.033Z,14.31
2022-09-01T04:03:51.032Z,14.33
2022-09-01T04:06:24.268Z,14.16
2022-09-01T04:09:03.257Z,14.25
2022-09-01T04:11:33.929Z,14.25
2022-09-01T04:14:01.889Z,14.34
2022-09-01T04:16:52.971Z,14.38
2022-09-01T04:19:27.042Z,14.36
2022-09-01T04:22:00.222Z,14.41
2022-09-01T04:24:32.937Z,14.49
2022-09-01T04:27:02.509Z,14.50
2022-09-01T04:29:32.120Z,14.58
2022-09-01T04:32:07.176Z,14.61
2022-09-01T04:34:38.692Z,14.78
2022-09-01T04:37:10.206Z,14.86
2022-09-01T04:39:39.443Z,14.87
2022-09-01T04:42:08.904Z,14.93
2022-09-01T04:44:36.784Z,14.91
2022-09-01T04:47:10.923Z,14.96
2022-09-01T04:49:38.455Z,15.06
2022-09-01T04:52:05.339Z,15.10
2022-09-01T04:54:35.042Z,15.16
2022-09-01T04:57:02.145Z,15.22
2022-09-01T04:59:30.655Z,15.31
2022-09-01T05:02:01.304Z,15.35
2022-09-01T05:04:35.381Z,15.37
2022-09-01T05:07:04.317Z,15.45
2022-09-01T05:09:37.293Z,15.42
2022-09-01T05:12:16.070Z,15.53
2022-09-01T05:14:48.993Z,15.54
2022-09-01T05:17:21.865Z,15.54
2022-09-01T05:19:51.272Z,15.77
2022-09-01T05:22:22.461Z,15.82
2022-09-01T05:25:21.167Z,15.85
2022-09-01T05:27:50.030Z,15.94
2022-09-01T05:30:19.525Z,16.02
2022-09-01T05:32:49.308Z,16.09
2022-09-01T05:35:17.659Z,16.20
2022-09-01T05:37:44.967Z,16.32
2022-09-01T05:40:16.370Z,16.51
2022-09-01T05:42:45.455Z,16.60
2022-09-01T05:45:14.340Z,16.73
2022-09-01T05:47:42.219Z,16.92
2022-09-01T05:50:14.508Z,16.99
2022-09-01T05:52:47.973Z,16.83
2022-09-01T05:55:15.500Z,16.89
2022-09-01T05:57:45.296Z,17.03
2022-09-01T06:00:14.522Z,17.10
2022-09-01T06:02:43.268Z,17.23
2022-09-01T06:05:15.965Z,17.30
2022-09-01T06:07:44.355Z,17.44
2022-09-01T06:10:14.767Z,17.59
2022-09-01T06:12:43.246Z,17.65
2022-09-01T06:15:16.128Z,17.74
2022-09-01T06:17:48.093Z,17.90
2022-09-01T06:20:19.031Z,17.94
2022-09-01T06:22:47.638Z,18.25
2022-09-01T06:25:18.561Z,18.45
2022-09-01T06:27:48.331Z,18.62
2022-09-01T06:30:24.366Z,18.85
2022-09-01T06:33:11.397Z,18.98
2022-09-01T06:35:47.236Z,19.18
2022-09-01T06:38:17.632Z,19.24
2022-09-01T06:40:48.675Z,19.39
2022-09-01T06:43:19.661Z,19.24
2022-09-01T06:45:54.625Z,19.33
2022-09-01T06:48:23.783Z,19.37
2022-09-01T06:53:51.281Z,19.19
2022-09-01T06:56:19.701Z,19.21
2022-09-01T06:58:48.508Z,19.49
2022-09-01T07:01:20.056Z,19.89
2022-09-01T07:03:52.003Z,19.88
2022-09-01T07:09:50.127Z,20.33
2022-09-01T07:13:05.035Z,20.56
2022-09-01T07:18:25.466Z,20.71
2022-09-01T07:21:36.879Z,20.94
2022-09-01T07:24:17.748Z,21.13
2022-09-01T07:26:35.665Z,21.05
2022-09-01T07:29:06.126Z,20.85
2022-09-01T07:34:42.163Z,20.81
2022-09-01T07:43:27.212Z,19.82
2022-09-01T07:49:29.467Z,19.59
2022-09-01T07:51:53.461Z,19.64
2022-09-01T07:54:23.959Z,19.68
2022-09-01T07:56:52.122Z,19.79
2022-09-01T07:59:21.365Z,19.98
2022-09-01T08:02:05.800Z,20.02
2022-09-01T08:04:34.681Z,19.87
2022-09-01T08:07:03.366Z,20.09
2022-09-01T08:09:37.724Z,20.10
2022-09-01T08:12:08.460Z,20.08
2022-09-01T08:14:43.309Z,20.26
2022-09-01T08:17:18.368Z,20.51
2022-09-01T08:19:59.889Z,20.75
2022-09-01T08:22:53.559Z,20.75
2022-09-01T08:25:25.041Z,20.88
2022-09-01T08:27:59.686Z,20.99
2022-09-01T08:30:28.463Z,21.12
2022-09-01T08:32:55.681Z,21.29
2022-09-01T08:35:23.373Z,21.49
2022-09-01T08:37:50.443Z,21.66
2022-09-01T08:40:20.843Z,21.83
2022-09-01T08:43:02.992Z,22.02
2022-09-01T08:45:33.701Z,22.38
2022-09-01T08:49:09.692Z,22.63
2022-09-01T08:51:34.597Z,22.77
2022-09-01T08:54:06.593Z,22.86
2022-09-01T08:56:39.830Z,23.12
2022-09-01T08:59:12.851Z,23.23
2022-09-01T09:02:12.518Z,23.52
2022-09-01T09:05:17.224Z,23.65
2022-09-01T09:08:06.547Z,23.71
2022-09-01T09:10:50.433Z,24.19
2022-09-01T09:13:24.801Z,24.59
2022-09-01T09:16:08.707Z,24.91
2022-09-01T09:18:40.236Z,25.28
2022-09-01T09:21:24.584Z,25.60
2022-09-01T09:24:01.070Z,25.88
2022-09-01T09:26:48.586Z,25.89
2022-09-01T09:29:15.495Z,26.07
2022-09-01T09:32:00.382Z,26.30
2022-09-01T09:34:34.981Z,26.40
2022-09-01T09:37:23.904Z,26.61
2022-09-01T09:40:08.581Z,27.04
2022-09-01T09:42:59.614Z,27.31
2022-09-01T09:45:41.672Z,27.37
2022-09-01T09:48:29.640Z,26.94
2022-09-01T09:51:21.505Z,26.88
2022-09-01T09:53:49.084Z,27.33
2022-09-01T09:56:15.892Z,27.45
2022-09-01T09:58:46.935Z,27.99
2022-09-01T10:01:26.245Z,28.38
2022-09-01T10:03:59.188Z,28.55
2022-09-01T10:06:47.400Z,28.86
2022-09-01T10:09:37.189Z,29.25
2022-09-01T10:12:05.634Z,29.16
2022-09-01T10:14:51.779Z,29.53
2022-09-01T10:17:38.565Z,29.04
2022-09-01T10:20:14.699Z,29.40
2022-09-01T10:22:41.610Z,29.54
2022-09-01T10:25:18.018Z,29.75
2022-09-01T10:27:50.228Z,29.93
2022-09-01T10:30:21.754Z,30.18
2022-09-01T10:33:01.505Z,30.38
2022-09-01T10:35:39.028Z,30.48
2022-09-01T10:38:11.042Z,30.79
2022-09-01T10:40:49.216Z,30.73
2022-09-01T10:43:41.692Z,30.64
2022-09-01T10:46:18.241Z,30.96
2022-09-01T10:48:51.762Z,31.19
2022-09-01T10:51:35.748Z,30.91
2022-09-01T10:54:05.827Z,30.66
2022-09-01T10:56:52.043Z,30.24
2022-09-01T10:59:41.836Z,29.79
2022-09-01T11:02:28.096Z,29.98
2022-09-01T11:04:59.412Z,29.86
2022-09-01T11:07:58.203Z,29.70
2022-09-01T11:10:34.226Z,29.81
2022-09-01T11:13:21.049Z,29.03
2022-09-01T11:15:48.815Z,28.85
2022-09-01T11:18:27.487Z,28.60
2022-09-01T11:20:56.309Z,28.52
2022-09-01T11:23:27.793Z,28.42
2022-09-01T11:26:21.864Z,28.28
2022-09-01T11:28:49.897Z,27.88
2022-09-01T11:31:31.474Z,28.24
2022-09-01T11:34:20.929Z,28.36
2022-09-01T11:37:00.520Z,28.53
2022-09-01T11:39:52.544Z,28.58
2022-09-01T11:42:26.844Z,28.92
2022-09-01T11:45:03.194Z,28.89
2022-09-01T11:47:46.756Z,28.90
2022-09-01T11:50:16.580Z,29.15
2022-09-01T11:53:12.452Z,29.32
2022-09-01T11:55:42.784Z,29.87
2022-09-01T11:58:29.110Z,30.21
2022-09-01T12:00:57.959Z,30.50
2022-09-01T12:03:30.689Z,31.14
2022-09-01T12:06:04.286Z,31.96
2022-09-01T12:08:34.857Z,32.88
2022-09-01T12:11:10.073Z,33.05
2022-09-01T12:13:37.527Z,32.82
2022-09-01T12:16:17.939Z,33.03
2022-09-01T12:18:51.860Z,33.68
2022-09-01T12:21:29.242Z,33.95
2022-09-01T12:24:17.870Z,33.64
2022-09-01T12:26:49.249Z,33.80
2022-09-01T12:29:17.306Z,34.52
2022-09-01T12:31:47.426Z,34.94
2022-09-01T12:34:47.911Z,35.50
2022-09-01T12:37:14.883Z,35.97
2022-09-01T12:39:47.991Z,36.24
2022-09-01T12:42:41.125Z,36.54
2022-09-01T12:45:11.174Z,36.42
2022-09-01T12:47:38.418Z,35.47
2022-09-01T12:50:12.885Z,34.99
2022-09-01T12:52:58.298Z,34.94
2022-09-01T12:58:25.757Z,35.61
2022-09-01T13:01:10.163Z,34.34
2022-09-01T13:04:03.766Z,34.59
2022-09-01T13:06:30.577Z,34.71
2022-09-01T13:08:57.393Z,34.93
2022-09-01T13:11:24.372Z,34.79
2022-09-01T13:13:51.152Z,34.64
2022-09-01T13:16:18.049Z,34.54
2022-09-01T13:21:32.928Z,33.84
2022-09-01T13:23:59.846Z,33.31
2022-09-01T13:26:29.846Z,32.93
2022-09-01T13:28:57.356Z,32.47
2022-09-01T13:31:31.678Z,32.18
2022-09-01T13:34:22.995Z,31.93
2022-09-01T13:36:51.043Z,31.34
2022-09-01T13:39:19.039Z,31.20
2022-09-01T13:41:47.349Z,31.08
2022-09-01T13:44:18.650Z,30.85
2022-09-01T13:47:28.677Z,30.58
2022-09-01T13:52:21.675Z,30.26
2022-09-01T13:54:48.468Z,30.04
2022-09-01T13:57:16.672Z,29.80
2022-09-01T13:59:44.445Z,29.29
2022-09-01T14:02:11.223Z,29.09
2022-09-01T14:04:38.391Z,28.93
2022-09-01T14:07:05.454Z,28.91
2022-09-01T14:09:32.369Z,28.83
2022-09-01T14:11:59.478Z,28.80
2022-09-01T14:14:26.672Z,28.72
2022-09-01T14:16:54.068Z,28.62
2022-09-01T14:19:21.073Z,28.54
2022-09-01T14:21:48.868Z,28.41
2022-09-01T14:24:16.581Z,28.41
2022-09-01T14:26:43.409Z,28.32
2022-09-01T14:29:10.365Z,28.03
2022-09-01T14:31:37.902Z,27.50
2022-09-01T14:34:06.876Z,27.12
2022-09-01T14:36:34.175Z,26.47
2022-09-01T14:39:01.186Z,25.90
2022-09-01T14:41:28.220Z,25.74
2022-09-01T14:44:02.781Z,25.94
2022-09-01T14:46:34.396Z,26.02
2022-09-01T14:49:02.782Z,26.11
2022-09-01T14:54:18.197Z,26.35
2022-09-01T14:57:28.363Z,26.54
2022-09-01T14:59:32.670Z,26.73
2022-09-01T15:02:00.755Z,26.96
2022-09-01T15:04:28.013Z,26.92
2022-09-01T15:06:55.868Z,26.60
2022-09-01T15:09:22.760Z,26.04
2022-09-01T15:11:49.571Z,25.61
2022-09-01T15:14:16.561Z,25.48
2022-09-01T15:16:43.469Z,25.18
2022-09-01T15:19:13.451Z,24.93
2022-09-01T15:21:42.808Z,24.53
2022-09-01T15:24:10.662Z,24.18
2022-09-01T15:26:41.000Z,24.00
2022-09-01T15:29:12.121Z,23.88
2022-09-01T15:31:39.426Z,23.90
2022-09-01T15:34:06.574Z,23.91
2022-09-01T15:36:37.188Z,23.91
2022-09-01T15:39:04.151Z,23.91
2022-09-01T15:41:33.503Z,23.84
2022-09-01T15:44:05.510Z,23.86
2022-09-01T15:46:34.137Z,23.71
2022-09-01T15:49:05.936Z,23.64
2022-09-01T15:51:38.706Z,23.60
2022-09-01T15:54:17.920Z,23.43
2022-09-01T15:56:47.323Z,23.40
2022-09-01T15:59:15.213Z,23.29
2022-09-01T16:01:45.066Z,23.32
2022-09-01T16:04:20.077Z,23.29
2022-09-01T16:06:49.594Z,23.27
2022-09-01T16:09:18.609Z,23.35
2022-09-01T16:11:45.470Z,23.32
2022-09-01T16:14:12.535Z,23.26
2022-09-01T16:16:56.753Z,23.08
2022-09-01T16:19:35.886Z,23.05
2022-09-01T16:22:25.528Z,22.99
2022-09-01T16:24:57.940Z,22.91
2022-09-01T16:27:33.037Z,22.94
2022-09-01T16:30:08.265Z,23.02
2022-09-01T16:32:36.301Z,23.07
2022-09-01T16:35:04.536Z,23.11
2022-09-01T16:37:41.448Z,23.04
2022-09-01T16:40:28.234Z,23.09
2022-09-01T16:43:17.450Z,23.12
2022-09-01T16:46:20.559Z,23.12
2022-09-01T16:49:18.345Z,23.12
2022-09-01T16:52:02.152Z,23.04
2022-09-01T16:54:49.512Z,23.30
2022-09-01T16:57:32.652Z,23.29
2022-09-01T17:00:01.916Z,23.31
2022-09-01T17:02:51.102Z,23.25
2022-09-01T17:05:25.889Z,23.19
2022-09-01T17:07:55.437Z,23.16
2022-09-01T17:11:18.679Z,23.11
2022-09-01T17:13:49.477Z,23.02
2022-09-01T17:16:29.794Z,22.82
2022-09-01T17:18:59.750Z,22.75
2022-09-01T17:21:45.342Z,22.84
2022-09-01T17:24:38.679Z,22.66
2022-09-01T17:27:28.523Z,22.38
2022-09-01T17:29:57.257Z,22.29
2022-09-01T17:32:54.917Z,22.52
2022-09-01T17:36:02.938Z,22.52
2022-09-01T17:39:07.547Z,22.54
2022-09-01T17:42:25.081Z,22.54
2022-09-01T17:44:56.399Z,22.44
2022-09-01T17:47:32.663Z,22.42
2022-09-01T17:50:08.188Z,22.39
2022-09-01T17:52:59.745Z,22.40
2022-09-01T17:55:53.786Z,22.38
2022-09-01T17:58:48.519Z,22.37
2022-09-01T18:01:34.594Z,22.31
2022-09-01T18:04:16.988Z,22.29
2022-09-01T18:07:04.833Z,22.19
2022-09-01T18:09:41.533Z,22.08
2022-09-01T18:12:13.530Z,22.14
2022-09-01T18:14:43.447Z,22.08
2022-09-01T18:17:16.907Z,21.92
2022-09-01T18:19:48.115Z,21.80
2022-09-01T18:22:22.891Z,21.71
2022-09-01T18:24:57.911Z,21.61
2022-09-01T18:27:27.711Z,21.52
2022-09-01T18:29:56.971Z,21.47
2022-09-01T18:32:49.504Z,21.42
2022-09-01T18:35:42.157Z,21.31
2022-09-01T18:38:14.895Z,21.31
2022-09-01T18:40:48.735Z,21.24
2022-09-01T18:43:29.293Z,21.19
2022-09-01T18:46:05.157Z,21.14
2022-09-01T18:48:44.327Z,21.10
2022-09-01T18:51:29.835Z,21.07
2022-09-01T18:54:20.990Z,21.00
2022-09-01T18:56:51.875Z,20.76
2022-09-01T18:59:48.004Z,20.89
2022-09-01T19:02:21.043Z,20.85
2022-09-01T19:04:52.705Z,20.74
2022-09-01T19:07:42.252Z,20.77
2022-09-01T19:10:27.362Z,20.70
2022-09-01T19:12:57.108Z,20.64
2022-09-01T19:15:47.103Z,20.61
2022-09-01T19:18:20.195Z,20.57
2022-09-01T19:21:05.906Z,20.55
2022-09-01T19:23:47.846Z,20.50
2022-09-01T19:26:21.484Z,20.44
2022-09-01T19:29:05.230Z,20.39
2022-09-01T19:31:42.391Z,20.34
2022-09-01T19:34:25.693Z,20.32
2022-09-01T19:36:59.817Z,20.30
2022-09-01T19:39:33.530Z,20.33
2022-09-01T19:42:08.997Z,20.33
2022-09-01T19:44:47.861Z,20.28
2022-09-01T19:47:21.337Z,20.19
2022-09-01T19:50:15.068Z,20.18
2022-09-01T19:52:56.831Z,20.10
2022-09-01T19:55:43.086Z,20.00
2022-09-01T19:58:21.218Z,19.96
2022-09-01T20:01:01.446Z,19.93
2022-09-01T20:03:46.749Z,19.85
2022-09-01T20:06:35.312Z,19.86
2022-09-01T20:09:07.603Z,19.82
2022-09-01T20:11:49.603Z,19.83
2022-09-01T20:14:32.494Z,19.83
2022-09-01T20:17:06.373Z,19.81
2022-09-01T20:19:55.464Z,19.77
2022-09-01T20:22:50.125Z,19.72
2022-09-01T20:25:19.297Z,19.65
2022-09-01T20:27:52.150Z,19.51
2022-09-01T20:30:37.229Z,19.52
2022-09-01T20:33:09.338Z,19.48
2022-09-01T20:35:39.063Z,19.46
2022-09-01T20:38:55.224Z,19.44
2022-09-01T20:41:39.542Z,19.40
2022-09-01T20:44:15.673Z,19.28
2022-09-01T20:46:42.507Z,19.18
2022-09-01T20:49:15.996Z,19.36
2022-09-01T20:51:50.437Z,19.36
2022-09-01T20:54:57.639Z,19.33
2022-09-01T20:57:55.187Z,19.23
2022-09-01T21:00:26.063Z,19.20
2022-09-01T21:03:17.752Z,19.17
2022-09-01T21:06:42.843Z,19.15
2022-09-01T21:09:18.888Z,19.09
2022-09-01T21:11:55.147Z,19.09
2022-09-01T21:14:31.519Z,19.09
2022-09-01T21:17:45.924Z,19.12
2022-09-01T21:20:36.412Z,19.09
2022-09-01T21:23:03.787Z,19.05
2022-09-01T21:25:33.553Z,19.03
2022-09-01T21:28:04.542Z,19.00
2022-09-01T21:30:34.903Z,19.01
2022-09-01T21:33:03.041Z,18.99
2022-09-01T21:35:30.038Z,19.02
2022-09-01T21:37:56.821Z,18.93
2022-09-01T21:40:25.446Z,18.85
2022-09-01T21:43:00.835Z,18.80
2022-09-01T21:45:27.932Z,18.72
2022-09-01T21:47:54.780Z,18.69
2022-09-01T21:50:23.628Z,18.67
2022-09-01T21:52:50.915Z,18.59
2022-09-01T21:55:22.523Z,18.49
2022-09-01T21:57:50.946Z,18.46
2022-09-01T22:00:24.139Z,18.41
2022-09-01T22:02:51.625Z,18.35
2022-09-01T22:05:18.520Z,18.21
2022-09-01T22:07:47.213Z,18.26
2022-09-01T22:10:18.072Z,18.19
2022-09-01T22:12:46.595Z,18.20
2022-09-01T22:15:15.913Z,18.21
2022-09-01T22:17:43.352Z,18.24
2022-09-01T22:20:12.313Z,18.28
2022-09-01T22:22:39.788Z,18.33
2022-09-01T22:25:11.256Z,18.39
2022-09-01T22:27:38.091Z,18.40
2022-09-01T22:30:06.290Z,18.42
2022-09-01T22:32:36.245Z,18.46
2022-09-01T22:35:04.971Z,18.50
2022-09-01T22:37:31.758Z,18.51
2022-09-01T22:39:58.650Z,18.53
2022-09-01T22:42:25.770Z,18.52
2022-09-01T22:44:52.541Z,18.57
2022-09-01T22:47:19.488Z,18.60
2022-09-01T22:49:46.235Z,18.60
2022-09-01T22:52:13.867Z,18.68
2022-09-01T22:54:41.135Z,18.69
2022-09-01T22:57:07.876Z,18.75
2022-09-01T22:59:34.778Z,18.77
2022-09-01T23:02:01.921Z,18.85
2022-09-01T23:04:32.143Z,18.90
2022-09-01T23:06:59.266Z,18.96
2022-09-01T23:09:26.105Z,18.95
2022-09-01T23:11:52.974Z,19.14
2022-09-01T23:14:19.808Z,19.13
2022-09-01T23:16:47.492Z,19.29
2022-09-01T23:19:22.505Z,19.36
2022-09-01T23:21:51.181Z,19.39
2022-09-01T23:24:19.855Z,19.45
2022-09-01T23:26:47.968Z,19.41
2022-09-01T23:29:15.154Z,19.50
2022-09-01T23:31:43.672Z,19.52
2022-09-01T23:34:10.634Z,19.53
2022-09-01T23:36:37.603Z,19.56
2022-09-01T23:39:05.797Z,19.61
2022-09-01T23:41:34.954Z,19.60
2022-09-01T23:44:04.223Z,19.58
2022-09-01T23:46:34.119Z,19.59
2022-09-01T23:49:02.215Z,19.57
2022-09-01T23:51:29.186Z,19.61
2022-09-01T23:53:56.181Z,19.61
2022-09-01T23:56:25.815Z,19.61
2022-09-01T23:58:53.019Z,19.57
